Time;durP1;ratioP1;P1;durP2;ratioP2;P2;SDS_P1;SDS_P2;PMS_P1;PMS_P2;Temp;Humidity;BMP_temperature;BMP_pressure;BME280_temperature;BME280_humidity;BME280_pressure;Samples;Min_cycle;Max_cycle;Signal;HPM_P1;HPM_P2
2022/07/07 00:01:54;;;;;;;25.27;18.77;;;16.50;99.90;;;;;;4953076;29;20047;-87
2022/07/07 00:04:20;;;;;;;30.65;19.27;;;16.50;99.90;;;;;;4953624;28;20414;-85
2022/07/07 00:06:46;;;;;;;24.83;16.55;;;16.50;99.90;;;;;;4935604;29;20135;-86
2022/07/07 00:09:11;;;;;;;29.48;19.45;;;16.50;99.90;;;;;;4936409;29;20045;-86
2022/07/07 00:11:37;;;;;;;23.95;16.83;;;16.50;99.90;;;;;;4953471;29;20498;-86
2022/07/07 00:14:07;;;;;;;25.90;17.50;;;16.50;99.90;;;;;;4935995;29;20382;-86
2022/07/07 00:16:33;;;;;;;26.00;17.35;;;16.50;99.90;;;;;;4953072;29;20079;-86
2022/07/07 00:19:01;;;;;;;23.13;17.23;;;16.50;99.90;;;;;;4935383;29;20090;-86
2022/07/07 00:21:27;;;;;;;26.65;18.52;;;16.50;99.90;;;;;;4953292;29;20403;-86
2022/07/07 00:23:52;;;;;;;27.48;18.73;;;16.50;99.90;;;;;;4952811;29;20039;-85
2022/07/07 00:26:18;;;;;;;28.42;18.27;;;16.50;99.90;;;;;;4953237;29;20050;-84
2022/07/07 00:28:44;;;;;;;26.27;17.80;;;16.50;99.90;;;;;;4953134;29;20162;-85
2022/07/07 00:31:09;;;;;;;23.58;17.42;;;16.50;99.90;;;;;;4935585;29;20066;-85
2022/07/07 00:33:35;;;;;;;21.95;16.70;;;16.50;99.90;;;;;;4952058;29;20090;-86
2022/07/07 00:36:00;;;;;;;26.15;16.63;;;16.50;99.90;;;;;;4939124;28;20070;-86
2022/07/07 00:38:26;;;;;;;21.60;16.13;;;16.50;99.90;;;;;;4952831;29;20126;-85
2022/07/07 00:40:52;;;;;;;21.05;14.95;;;16.40;99.90;;;;;;4952615;29;20047;-86
2022/07/07 00:43:18;;;;;;;22.40;16.20;;;16.40;99.90;;;;;;4953035;28;20146;-86
2022/07/07 00:45:48;;;;;;;24.42;16.08;;;16.40;99.90;;;;;;4951806;29;20130;-86
2022/07/07 00:48:14;;;;;;;24.98;16.05;;;16.40;99.90;;;;;;4951642;29;20071;-86
2022/07/07 00:50:41;;;;;;;21.58;16.00;;;16.40;99.90;;;;;;4952953;29;20054;-85
2022/07/07 00:53:07;;;;;;;22.35;16.80;;;16.30;99.90;;;;;;4950936;29;20487;-87
2022/07/07 00:55:33;;;;;;;22.33;16.25;;;16.30;99.90;;;;;;4952819;29;20110;-87
2022/07/07 00:57:58;;;;;;;20.40;14.77;;;16.30;99.90;;;;;;4950638;29;20085;-87
2022/07/07 01:00:24;;;;;;;23.65;16.15;;;16.30;99.90;;;;;;4952252;29;20478;-86
2022/07/07 01:02:49;;;;;;;25.60;15.73;;;16.30;99.90;;;;;;4950818;29;20049;-85
2022/07/07 01:05:16;;;;;;;20.83;15.60;;;16.30;99.90;;;;;;4935724;29;20051;-86
2022/07/07 01:07:42;;;;;;;21.10;14.95;;;16.30;99.90;;;;;;4951293;29;20051;-86
2022/07/07 01:10:08;;;;;;;23.05;15.82;;;16.30;99.90;;;;;;4951945;29;20091;-85
2022/07/07 01:12:35;;;;;;;21.77;14.95;;;16.30;99.90;;;;;;4951205;29;20118;-85
2022/07/07 01:15:01;;;;;;;21.40;14.82;;;16.30;99.90;;;;;;4950515;28;20051;-86
2022/07/07 01:17:26;;;;;;;21.83;15.57;;;16.30;99.90;;;;;;4935092;29;20054;-86
2022/07/07 01:19:52;;;;;;;24.63;16.95;;;16.30;99.90;;;;;;4950571;29;20055;-85
2022/07/07 01:22:18;;;;;;;22.73;15.48;;;16.30;99.90;;;;;;4950804;29;20047;-86
2022/07/07 01:24:43;;;;;;;22.05;15.75;;;16.30;99.90;;;;;;4951083;29;20500;-87
2022/07/07 01:27:14;;;;;;;23.23;15.30;;;16.30;99.90;;;;;;4950541;29;20045;-87
2022/07/07 01:29:49;;;;;;;20.70;14.27;;;16.30;99.90;;;;;;4950918;29;20114;-88
2022/07/07 01:32:14;;;;;;;24.05;16.42;;;16.20;99.90;;;;;;4951228;29;20086;-88
2022/07/07 01:34:42;;;;;;;21.95;13.68;;;16.20;99.90;;;;;;4934713;29;20039;-88
2022/07/07 01:37:07;;;;;;;23.83;15.15;;;16.20;99.90;;;;;;4950462;28;20091;-87
2022/07/07 01:39:34;;;;;;;17.40;13.10;;;16.20;99.90;;;;;;4952162;29;20514;-88
2022/07/07 01:41:59;;;;;;;17.50;10.77;;;16.20;99.90;;;;;;4951702;28;20067;-86
2022/07/07 01:44:25;;;;;;;15.13;9.93;;;16.10;99.90;;;;;;4935050;29;20095;-87
2022/07/07 01:46:51;;;;;;;13.25;8.80;;;16.20;99.90;;;;;;4950564;29;20101;-87
2022/07/07 01:49:16;;;;;;;11.32;8.20;;;16.10;99.90;;;;;;4951066;29;20066;-89
2022/07/07 01:51:42;;;;;;;12.52;8.15;;;16.10;99.90;;;;;;4939292;29;20051;-90
2022/07/07 01:54:07;;;;;;;11.00;7.97;;;16.10;99.90;;;;;;4950961;29;20098;-87
2022/07/07 01:56:34;;;;;;;10.57;8.45;;;16.10;99.90;;;;;;4952446;29;20035;-88
2022/07/07 01:58:59;;;;;;;13.15;8.93;;;16.10;99.90;;;;;;4951926;29;20147;-88
2022/07/07 02:01:25;;;;;;;11.80;7.78;;;16.10;99.90;;;;;;4935501;29;20060;-89
2022/07/07 02:03:50;;;;;;;13.70;9.40;;;16.10;99.90;;;;;;4955408;29;20047;-87
2022/07/07 02:06:16;;;;;;;12.38;7.68;;;16.00;99.90;;;;;;4966281;28;20070;-89
2022/07/07 02:08:42;;;;;;;11.73;9.27;;;16.00;99.90;;;;;;4966834;29;20035;-89
2022/07/07 02:11:14;;;;;;;10.60;7.97;;;16.00;99.90;;;;;;4953298;29;20151;-89
2022/07/07 02:13:47;;;;;;;13.27;8.13;;;16.00;99.90;;;;;;4937677;29;20043;-89
2022/07/07 02:16:13;;;;;;;15.90;9.38;;;16.00;99.90;;;;;;4936732;29;20063;-89
2022/07/07 02:18:39;;;;;;;15.40;7.75;;;16.00;99.90;;;;;;4952098;29;20039;-87
2022/07/07 02:21:05;;;;;;;9.93;6.97;;;15.90;99.90;;;;;;4952685;28;20058;-89
2022/07/07 02:23:32;;;;;;;13.10;8.23;;;16.00;99.90;;;;;;4951758;29;20093;-88
2022/07/07 02:25:57;;;;;;;15.45;7.80;;;16.00;99.90;;;;;;4935020;29;20059;-88
2022/07/07 02:28:23;;;;;;;8.98;6.93;;;15.90;99.90;;;;;;4951860;28;20093;-85
2022/07/07 02:30:52;;;;;;;12.27;7.80;;;16.00;99.90;;;;;;4954679;29;20059;-88
2022/07/07 02:33:18;;;;;;;14.63;7.80;;;16.00;99.90;;;;;;4954753;29;20051;-89
2022/07/07 02:35:44;;;;;;;17.15;8.63;;;16.00;99.90;;;;;;4955434;28;20077;-89
2022/07/07 02:38:10;;;;;;;9.98;6.82;;;16.00;99.90;;;;;;4955877;29;20550;-87
2022/07/07 02:40:35;;;;;;;10.02;7.28;;;16.00;99.90;;;;;;4956333;29;20399;-88
2022/07/07 02:43:01;;;;;;;12.82;8.93;;;16.00;99.90;;;;;;4955292;29;20042;-86
2022/07/07 02:45:27;;;;;;;14.05;8.43;;;15.90;99.90;;;;;;4957314;29;20051;-94
2022/07/07 02:47:52;;;;;;;12.65;8.40;;;16.00;99.90;;;;;;4955239;29;20542;-91
2022/07/07 02:50:18;;;;;;;14.10;8.18;;;15.90;99.90;;;;;;4956004;28;20057;-92
2022/07/07 02:52:44;;;;;;;15.63;8.70;;;15.90;99.90;;;;;;4956176;29;20105;-89
2022/07/07 02:55:09;;;;;;;11.90;8.73;;;15.90;99.90;;;;;;4950766;28;20051;-90
2022/07/07 02:57:36;;;;;;;13.77;9.10;;;15.90;99.90;;;;;;4950336;29;20126;-89
2022/07/07 03:00:03;;;;;;;15.18;9.18;;;15.90;99.90;;;;;;4955909;29;20050;-88
2022/07/07 03:02:29;;;;;;;17.70;9.07;;;16.00;99.90;;;;;;4954819;29;20483;-88
2022/07/07 03:04:55;;;;;;;16.63;8.68;;;15.90;99.90;;;;;;4955429;29;20262;-89
2022/07/07 03:07:20;;;;;;;15.02;7.65;;;16.00;99.90;;;;;;4954867;28;20051;-89
2022/07/07 03:09:46;;;;;;;13.73;7.78;;;16.00;99.90;;;;;;4955515;29;20043;-88
2022/07/07 03:12:12;;;;;;;13.85;7.88;;;16.00;99.90;;;;;;4955922;29;20086;-88
2022/07/07 03:14:37;;;;;;;12.63;7.93;;;16.00;99.90;;;;;;4954550;28;20063;-89
2022/07/07 03:17:03;;;;;;;15.18;7.82;;;16.00;99.90;;;;;;4954806;29;20043;-89
2022/07/07 03:19:29;;;;;;;18.92;8.30;;;16.00;99.90;;;;;;4954540;29;20372;-87
2022/07/07 03:21:55;;;;;;;18.63;8.23;;;16.00;99.90;;;;;;4956014;29;20163;-87
2022/07/07 03:24:20;;;;;;;11.23;7.07;;;16.00;99.90;;;;;;4953735;29;20105;-88
2022/07/07 03:26:46;;;;;;;13.38;7.82;;;16.00;99.90;;;;;;4953137;29;20480;-88
2022/07/07 03:29:12;;;;;;;14.82;6.82;;;16.00;99.90;;;;;;4953289;29;20409;-87
2022/07/07 03:31:37;;;;;;;12.73;7.28;;;15.90;99.90;;;;;;4937727;29;20054;-87
2022/07/07 03:34:03;;;;;;;12.43;4.90;;;15.90;99.90;;;;;;4955041;29;20062;-87
2022/07/07 03:36:28;;;;;;;12.20;5.30;;;15.90;99.90;;;;;;4953981;29;20067;-89
2022/07/07 03:38:54;;;;;;;12.35;5.28;;;16.00;99.90;;;;;;4934210;29;20095;-89
2022/07/07 03:41:20;;;;;;;12.48;5.38;;;15.90;99.90;;;;;;4952854;29;20043;-87
2022/07/07 03:43:45;;;;;;;11.65;5.43;;;15.90;99.90;;;;;;4954902;29;20051;-88
2022/07/07 03:46:11;;;;;;;11.13;5.50;;;15.90;99.90;;;;;;4953647;29;20058;-90
2022/07/07 03:48:37;;;;;;;11.07;5.55;;;15.90;99.90;;;;;;4954607;29;20039;-90
2022/07/07 03:51:02;;;;;;;13.70;5.85;;;15.90;99.90;;;;;;4938939;29;20083;-90
2022/07/07 03:53:28;;;;;;;17.13;5.65;;;15.90;99.90;;;;;;4953558;29;20130;-92
2022/07/07 03:55:53;;;;;;;15.25;5.10;;;15.90;99.90;;;;;;4954488;29;20043;-91
2022/07/07 03:58:19;;;;;;;15.07;5.68;;;15.90;99.90;;;;;;4954422;29;20043;-94
2022/07/07 04:00:45;;;;;;;16.27;5.05;;;15.90;99.90;;;;;;4938690;29;20053;-91
2022/07/07 04:03:10;;;;;;;9.77;3.63;;;15.80;99.90;;;;;;4954101;29;20051;-85
2022/07/07 04:05:36;;;;;;;5.43;2.85;;;15.90;99.90;;;;;;4937564;29;20046;-91
2022/07/07 04:08:02;;;;;;;5.88;3.10;;;15.80;99.90;;;;;;4936608;29;20047;-90
2022/07/07 04:10:27;;;;;;;5.93;2.35;;;15.80;99.90;;;;;;4953195;29;20039;-89
2022/07/07 04:12:55;;;;;;;10.10;3.00;;;15.70;99.90;;;;;;4936950;29;20404;-90
2022/07/07 04:15:22;;;;;;;7.35;2.97;;;15.70;99.90;;;;;;4936151;29;20125;-89
2022/07/07 04:17:48;;;;;;;8.63;2.83;;;15.70;99.90;;;;;;4953951;29;20087;-91
2022/07/07 04:20:13;;;;;;;11.38;3.00;;;14.40;99.90;;;;;;4936305;29;20058;-92
2022/07/07 04:22:39;;;;;;;7.93;2.67;;;15.70;99.90;;;;;;4953542;29;20047;-91
2022/07/07 04:25:05;;;;;;;8.63;3.00;;;15.60;99.90;;;;;;4939846;29;20134;-91
2022/07/07 04:27:31;;;;;;;14.90;3.08;;;15.60;99.90;;;;;;4963753;29;20086;-88
2022/07/07 04:29:56;;;;;;;12.23;3.17;;;15.60;99.90;;;;;;4955421;29;20047;-85
2022/07/07 04:32:22;;;;;;;7.70;2.00;;;15.50;99.90;;;;;;4966473;29;20062;-91
2022/07/07 04:34:48;;;;;;;8.45;2.10;;;15.60;99.90;;;;;;4955837;29;20051;-92
2022/07/07 04:37:13;;;;;;;10.07;2.13;;;15.50;99.90;;;;;;4953610;28;20066;-92
2022/07/07 04:39:39;;;;;;;9.40;1.92;;;15.50;99.90;;;;;;4954075;29;20046;-93
2022/07/07 04:42:05;;;;;;;16.60;3.50;;;15.50;99.90;;;;;;4936603;29;20440;-93
2022/07/07 04:44:30;;;;;;;13.05;1.95;;;15.50;99.90;;;;;;4936313;29;20134;-91
2022/07/07 04:46:56;;;;;;;14.82;2.55;;;15.50;99.90;;;;;;4954321;29;20126;-91
2022/07/07 04:49:22;;;;;;;13.60;2.45;;;15.50;99.90;;;;;;4938794;29;20151;-93
2022/07/07 04:51:48;;;;;;;14.85;2.90;;;15.50;99.90;;;;;;4921207;29;20063;-93
2022/07/07 04:54:14;;;;;;;12.55;2.15;;;15.40;99.90;;;;;;4937184;29;20087;-91
2022/07/07 04:56:40;;;;;;;9.82;2.38;;;15.40;99.90;;;;;;4936196;29;20073;-91
2022/07/07 04:59:05;;;;;;;10.20;2.30;;;15.40;99.90;;;;;;4936632;29;20491;-90
2022/07/07 05:01:31;;;;;;;14.43;2.70;;;15.50;99.90;;;;;;4952999;29;20059;-92
2022/07/07 05:03:57;;;;;;;13.40;3.13;;;15.60;99.90;;;;;;4936852;29;20078;-93
2022/07/07 05:06:22;;;;;;;12.82;2.58;;;15.60;99.90;;;;;;4935766;29;20055;-90
2022/07/07 05:08:48;;;;;;;12.15;2.25;;;15.60;99.90;;;;;;4939159;29;20086;-91
2022/07/07 05:11:13;;;;;;;14.90;2.47;;;15.70;99.90;;;;;;4937715;29;20051;-89
2022/07/07 05:13:39;;;;;;;10.60;3.00;;;15.70;99.90;;;;;;4953272;29;20101;-89
2022/07/07 05:16:05;;;;;;;8.40;2.00;;;15.60;99.90;;;;;;4953566;29;20075;-92
2022/07/07 05:18:31;;;;;;;8.00;1.98;;;15.60;99.90;;;;;;4935321;29;20122;-90
2022/07/07 05:20:57;;;;;;;11.18;2.10;;;15.60;99.90;;;;;;4936025;29;20079;-91
2022/07/07 05:23:25;;;;;;;10.73;2.05;;;15.70;99.90;;;;;;4964556;28;20066;-84
2022/07/07 05:25:53;;;;;;;9.18;2.40;;;15.70;99.90;;;;;;4965609;28;20083;-90
2022/07/07 05:28:19;;;;;;;9.48;2.13;;;15.90;99.90;;;;;;4935759;29;20516;-88
2022/07/07 05:30:45;;;;;;;10.57;2.17;;;16.30;99.90;;;;;;4952231;29;20050;-92
2022/07/07 05:33:10;;;;;;;11.57;2.85;;;16.60;99.90;;;;;;4952540;29;20438;-92
2022/07/07 05:35:36;;;;;;;8.57;1.90;;;16.70;99.90;;;;;;4950947;29;20399;-89
2022/07/07 05:38:02;;;;;;;9.55;2.40;;;16.70;99.90;;;;;;4935812;29;20047;-90
2022/07/07 05:40:28;;;;;;;9.88;2.10;;;16.20;99.90;;;;;;4935085;29;20051;-89
2022/07/07 05:42:54;;;;;;;12.77;2.17;;;16.10;99.90;;;;;;4953102;29;20051;-90
2022/07/07 05:45:19;;;;;;;11.73;2.28;;;16.00;99.90;;;;;;4935610;29;20082;-91
2022/07/07 05:47:45;;;;;;;8.13;2.08;;;15.90;99.90;;;;;;4934776;29;20526;-89
2022/07/07 05:50:11;;;;;;;10.60;2.97;;;15.70;99.90;;;;;;4935840;29;20087;-91
2022/07/07 05:52:37;;;;;;;9.32;2.10;;;15.80;99.90;;;;;;4935376;29;20051;-89
2022/07/07 05:55:03;;;;;;;7.60;2.28;;;15.60;99.90;;;;;;4935305;29;20043;-90
2022/07/07 05:57:29;;;;;;;10.48;2.50;;;15.60;99.90;;;;;;4935522;29;20074;-91
2022/07/07 05:59:54;;;;;;;13.25;2.75;;;15.60;99.90;;;;;;4951996;29;20079;-92
2022/07/07 06:02:20;;;;;;;9.20;2.67;;;15.50;99.90;;;;;;4921432;29;20408;-90
2022/07/07 06:04:45;;;;;;;9.85;2.40;;;15.50;99.90;;;;;;4956089;29;20047;-92
2022/07/07 06:07:11;;;;;;;11.88;2.80;;;15.50;99.90;;;;;;4938861;29;20043;-89
2022/07/07 06:09:37;;;;;;;7.70;1.90;;;15.50;99.90;;;;;;4938612;29;20051;-90
2022/07/07 06:12:03;;;;;;;11.18;3.55;;;15.40;99.90;;;;;;4939382;29;20043;-91
2022/07/07 06:14:28;;;;;;;10.43;2.70;;;15.40;99.90;;;;;;4955081;29;20047;-91
2022/07/07 06:16:54;;;;;;;11.40;2.22;;;15.40;99.90;;;;;;4955961;29;20114;-91
2022/07/07 06:19:20;;;;;;;10.48;2.60;;;15.50;99.90;;;;;;4955973;29;20086;-91
2022/07/07 06:21:45;;;;;;;11.23;2.80;;;15.60;99.90;;;;;;4955378;29;20057;-91
2022/07/07 06:24:11;;;;;;;9.52;2.17;;;15.60;99.90;;;;;;4938504;29;20102;-90
2022/07/07 06:26:37;;;;;;;11.98;2.45;;;15.70;99.90;;;;;;4935564;29;20148;-89
2022/07/07 06:29:03;;;;;;;13.57;2.90;;;15.80;99.90;;;;;;4937814;29;20046;-90
2022/07/07 06:31:29;;;;;;;10.75;2.35;;;15.90;99.90;;;;;;4958353;29;20043;-86
2022/07/07 06:33:54;;;;;;;10.02;2.67;;;15.80;99.90;;;;;;4962155;29;20062;-90
2022/07/07 06:36:20;;;;;;;12.68;3.65;;;15.80;99.90;;;;;;4951134;29;20518;-90
2022/07/07 06:38:46;;;;;;;11.65;2.67;;;16.20;99.90;;;;;;4962107;29;20094;-89
2022/07/07 06:41:11;;;;;;;10.27;2.60;;;17.10;99.90;;;;;;4955185;29;20051;-90
2022/07/07 06:43:37;;;;;;;11.30;2.30;;;18.10;99.90;;;;;;4954413;29;20047;-88
2022/07/07 06:46:03;;;;;;;6.28;2.03;;;18.20;99.90;;;;;;4954271;28;20045;-91
2022/07/07 06:48:29;;;;;;;8.80;2.10;;;18.40;99.90;;;;;;4954352;29;20035;-90
2022/07/07 06:50:54;;;;;;;10.23;2.65;;;18.80;99.90;;;;;;4955291;29;20196;-91
2022/07/07 06:53:20;;;;;;;8.13;2.10;;;19.60;99.90;;;;;;4960154;29;20504;-91
2022/07/07 06:55:46;;;;;;;9.77;2.00;;;19.60;99.90;;;;;;4957090;29;20059;-89
2022/07/07 06:58:12;;;;;;;10.48;2.15;;;19.20;99.90;;;;;;4955374;29;20195;-90
2022/07/07 07:00:39;;;;;;;9.77;2.28;;;19.40;99.90;;;;;;4955101;29;20499;-89
2022/07/07 07:03:05;;;;;;;5.20;2.00;;;19.60;99.90;;;;;;4954171;29;20114;-91
2022/07/07 07:05:31;;;;;;;6.80;1.80;;;19.40;99.90;;;;;;4955016;29;20047;-89
2022/07/07 07:07:56;;;;;;;7.82;2.53;;;18.70;99.90;;;;;;4954901;28;20044;-89
2022/07/07 07:10:22;;;;;;;8.93;2.15;;;18.10;99.90;;;;;;4953588;29;20479;-90
2022/07/07 07:12:48;;;;;;;7.75;2.20;;;18.00;99.90;;;;;;4953651;29;20047;-89
2022/07/07 07:15:13;;;;;;;7.50;2.03;;;17.60;99.90;;;;;;4954213;28;20039;-91
2022/07/07 07:17:39;;;;;;;8.82;2.63;;;17.50;99.90;;;;;;4952956;29;20047;-89
2022/07/07 07:20:05;;;;;;;5.60;1.63;;;17.60;99.90;;;;;;4938007;29;20047;-91
2022/07/07 07:22:38;;;;;;;7.80;1.70;;;17.90;99.90;;;;;;4953704;29;20049;-89
2022/07/07 07:25:04;;;;;;;6.78;1.60;;;17.50;99.90;;;;;;4953540;29;20051;-89
2022/07/07 07:27:29;;;;;;;3.65;1.10;;;17.10;99.90;;;;;;4953623;29;20043;-90
2022/07/07 07:29:55;;;;;;;2.63;0.80;;;17.20;99.90;;;;;;4937234;29;20237;-89
2022/07/07 07:32:21;;;;;;;4.28;1.20;;;17.30;99.90;;;;;;4953203;29;20106;-92
2022/07/07 07:34:46;;;;;;;4.45;0.90;;;17.70;99.90;;;;;;4954044;28;20082;-92
2022/07/07 07:37:12;;;;;;;3.25;1.00;;;18.30;99.90;;;;;;4955479;28;20059;-91
2022/07/07 07:39:38;;;;;;;8.55;1.83;;;18.60;99.90;;;;;;4921414;29;20047;-88
2022/07/07 07:42:03;;;;;;;4.88;0.88;;;18.10;99.90;;;;;;4937056;29;20050;-90
2022/07/07 07:47:14;;;;;;;7.18;1.25;;;17.80;99.90;;;;;;4931412;28;20507;-90
2022/07/07 07:49:39;;;;;;;3.72;0.90;;;18.30;99.90;;;;;;4956981;28;20357;-91
2022/07/07 07:52:05;;;;;;;3.75;0.95;;;19.30;99.90;;;;;;4942773;28;20046;-89
2022/07/07 07:54:31;;;;;;;2.88;0.70;;;20.20;99.90;;;;;;4957539;28;20223;-92
2022/07/07 07:56:57;;;;;;;3.13;0.60;;;20.50;99.90;;;;;;4968770;28;20053;-92
2022/07/07 07:59:22;;;;;;;4.28;1.15;;;20.90;99.90;;;;;;4952143;28;20094;-93
2022/07/07 08:01:48;;;;;;;2.72;1.00;;;21.70;99.90;;;;;;4948311;28;20055;-90
2022/07/07 08:04:13;;;;;;;3.65;0.88;;;21.40;99.90;;;;;;4954586;28;20083;-90
2022/07/07 08:06:39;;;;;;;5.38;1.50;;;21.30;99.90;;;;;;4953091;28;20885;-91
2022/07/07 08:09:05;;;;;;;5.40;0.85;;;21.10;99.90;;;;;;4952580;28;20471;-93
2022/07/07 08:11:30;;;;;;;2.55;1.02;;;20.20;99.90;;;;;;4949648;28;20051;-91
2022/07/07 08:13:56;;;;;;;3.30;0.98;;;19.20;99.90;;;;;;4952190;28;20101;-91
2022/07/07 08:16:22;;;;;;;2.90;0.90;;;18.20;99.90;;;;;;4951408;28;20569;-87
2022/07/07 08:18:47;;;;;;;4.90;1.20;;;17.50;99.90;;;;;;4952459;28;20431;-89
2022/07/07 08:21:13;;;;;;;5.13;1.23;;;17.30;99.90;;;;;;4951363;28;20051;-90
2022/07/07 08:23:39;;;;;;;4.20;0.90;;;17.00;99.90;;;;;;4952122;28;20051;-88
2022/07/07 08:26:05;;;;;;;4.32;1.33;;;17.20;99.90;;;;;;4942919;28;20066;-87
2022/07/07 08:28:32;;;;;;;4.30;1.00;;;17.60;99.90;;;;;;4950014;28;20039;-88
2022/07/07 08:30:57;;;;;;;2.45;1.00;;;18.00;99.90;;;;;;4952103;28;20043;-90
2022/07/07 08:33:23;;;;;;;4.72;1.05;;;18.50;99.90;;;;;;4935197;28;20050;-88
2022/07/07 08:35:49;;;;;;;3.58;0.90;;;18.60;99.90;;;;;;4948219;28;20110;-86
2022/07/07 08:38:14;;;;;;;4.38;1.20;;;18.60;99.90;;;;;;4966005;28;20141;-88
2022/07/07 08:40:40;;;;;;;4.63;1.10;;;18.40;99.90;;;;;;4952238;28;20090;-89
2022/07/07 08:43:06;;;;;;;3.45;1.10;;;18.30;99.90;;;;;;4947742;29;20043;-88
2022/07/07 08:45:32;;;;;;;4.55;1.30;;;18.10;99.90;;;;;;4953702;28;20054;-87
2022/07/07 08:47:58;;;;;;;4.03;1.20;;;18.40;99.90;;;;;;4949974;28;20141;-87
2022/07/07 08:50:24;;;;;;;6.32;1.30;;;18.60;99.90;;;;;;4933921;28;20047;-86
2022/07/07 08:52:52;;;;;;;2.03;0.93;;;19.30;99.90;;;;;;4947594;28;20054;-87
2022/07/07 08:55:20;;;;;;;3.00;1.13;;;19.30;99.90;;;;;;4950731;28;20499;-86
2022/07/07 08:57:46;;;;;;;3.88;1.20;;;19.30;99.90;;;;;;4951125;28;20043;-86
2022/07/07 09:00:12;;;;;;;3.55;0.95;;;18.70;99.90;;;;;;4931136;28;20047;-89
2022/07/07 09:02:38;;;;;;;7.43;1.20;;;18.40;99.90;;;;;;4953080;28;20050;-88
2022/07/07 09:05:05;;;;;;;2.45;1.10;;;18.40;99.90;;;;;;4951422;28;20058;-87
2022/07/07 09:08:15;;;;;;;7.50;1.55;;;18.40;99.90;;;;;;4955482;28;20486;-89
2022/07/07 09:10:42;;;;;;;7.95;1.60;;;18.70;99.90;;;;;;4897456;28;20424;-89
2022/07/07 09:13:25;;;;;;;6.88;1.40;;;18.90;99.90;;;;;;4952217;28;20113;-89
2022/07/07 09:15:51;;;;;;;7.90;1.85;;;19.00;99.90;;;;;;4956193;28;20054;-87
2022/07/07 09:18:30;;;;;;;6.03;1.95;;;18.90;99.90;;;;;;4942952;28;20448;-88
2022/07/07 09:20:56;;;;;;;3.42;1.50;;;18.80;99.90;;;;;;4918794;28;20110;-87
2022/07/07 09:23:22;;;;;;;9.10;1.92;;;18.80;99.90;;;;;;4950347;28;20122;-89
2022/07/07 09:25:48;;;;;;;5.82;1.63;;;19.20;99.90;;;;;;4919320;28;20047;-90
2022/07/07 09:28:13;;;;;;;10.68;2.47;;;19.30;99.90;;;;;;4948759;28;20189;-90
2022/07/07 09:30:41;;;;;;;7.25;1.58;;;19.30;99.90;;;;;;4949519;28;20039;-89
2022/07/07 09:33:15;;;;;;;7.25;1.83;;;18.80;99.90;;;;;;4935423;28;20054;-89
2022/07/07 09:38:28;;;;;;;5.15;1.45;;;18.30;99.90;;;;;;4938552;28;20069;-90
2022/07/07 09:41:01;;;;;;;4.97;1.38;;;18.30;99.90;;;;;;4967809;28;20438;-87
2022/07/07 09:43:28;;;;;;;5.13;1.48;;;18.00;99.90;;;;;;4953615;28;20078;-89
2022/07/07 09:46:07;;;;;;;4.82;1.55;;;18.00;99.90;;;;;;4964112;28;20051;-90
2022/07/07 09:48:33;;;;;;;3.63;1.10;;;18.80;99.90;;;;;;4942159;28;20027;-89
2022/07/07 09:51:11;;;;;;;9.48;1.80;;;18.50;99.90;;;;;;4969056;28;20047;-87
2022/07/07 09:54:16;;;;;;;3.63;1.60;;;18.50;99.90;;;;;;4952799;28;20062;-89
2022/07/07 09:56:43;;;;;;;4.03;1.70;;;18.60;99.90;;;;;;4969413;28;20155;-91
2022/07/07 09:59:11;;;;;;;4.90;1.50;;;18.60;99.90;;;;;;5082176;23;20067;-87
2022/07/07 10:01:38;;;;;;;4.68;1.30;;;18.80;99.90;;;;;;5005611;28;20057;-88
2022/07/07 10:04:10;;;;;;;4.72;1.50;;;19.10;99.90;;;;;;4997368;28;20095;-90
2022/07/07 10:06:37;;;;;;;7.63;1.85;;;19.50;99.90;;;;;;5026805;28;20058;-94
2022/07/07 10:09:10;;;;;;;5.22;1.80;;;19.40;99.90;;;;;;5014277;28;20404;-88
2022/07/07 10:11:40;;;;;;;5.00;1.20;;;18.70;99.90;;;;;;4994890;28;20057;-92
2022/07/07 10:14:10;;;;;;;5.10;1.38;;;18.80;99.90;;;;;;4989182;28;20132;-86
2022/07/07 10:16:39;;;;;;;2.78;1.30;;;18.00;99.90;;;;;;5034642;23;20047;-94
2022/07/07 10:19:05;;;;;;;7.32;1.60;;;17.60;99.90;;;;;;4951663;28;20069;-93
2022/07/07 10:21:30;;;;;;;7.35;1.77;;;17.50;99.90;;;;;;4954525;29;20457;-95
2022/07/07 10:23:56;;;;;;;6.90;1.60;;;17.50;99.90;;;;;;4933259;29;20135;-93
2022/07/07 10:26:58;;;;;;;6.57;1.48;;;17.60;99.90;;;;;;5198962;22;20086;-92
2022/07/07 10:29:45;;;;;;;6.93;1.65;;;17.70;99.90;;;;;;4940059;23;20169;-94
2022/07/07 10:32:16;;;;;;;7.10;1.80;;;18.10;99.90;;;;;;4984468;28;20145;-91
2022/07/07 10:34:50;;;;;;;4.28;1.40;;;18.00;99.90;;;;;;4986878;23;20346;-94
2022/07/07 10:37:15;;;;;;;;;;;19.00;99.90;;;;;;4974784;28;20062;-90
2022/07/07 10:39:43;;;;;;;3.40;1.48;;;18.80;99.90;;;;;;4977630;28;19921;-91
2022/07/07 10:42:15;;;;;;;6.88;1.75;;;18.40;99.90;;;;;;4994309;28;20456;-91
2022/07/07 10:44:41;;;;;;;7.40;2.08;;;19.20;99.90;;;;;;4984841;28;20047;-91
2022/07/07 10:47:16;;;;;;;11.23;2.20;;;18.30;99.90;;;;;;4994595;28;20050;-87
2022/07/07 10:49:52;;;;;;;8.52;1.90;;;18.00;99.90;;;;;;4987628;28;20034;-92
2022/07/07 10:52:22;;;;;;;5.18;1.55;;;18.20;99.90;;;;;;4963941;28;20058;-89
2022/07/07 10:54:49;;;;;;;11.27;1.92;;;18.00;99.90;;;;;;4981686;28;20057;-89
2022/07/07 10:57:19;;;;;;;9.23;2.00;;;17.90;99.90;;;;;;4992044;28;20054;-88
2022/07/07 11:00:15;;;;;;;8.02;1.98;;;18.10;99.90;;;;;;4977469;28;20101;-87
2022/07/07 11:02:52;;;;;;;15.40;2.80;;;17.70;99.90;;;;;;4973762;28;20133;-87
2022/07/07 11:05:17;;;;;;;13.15;2.47;;;17.40;99.90;;;;;;4979985;28;20128;-87
2022/07/07 11:07:55;;;;;;;14.63;3.22;;;17.50;99.90;;;;;;4992390;28;20047;-87
2022/07/07 11:10:21;;;;;;;19.17;2.90;;;17.60;99.90;;;;;;4979141;28;20437;-86
2022/07/07 11:12:48;;;;;;;18.05;2.85;;;18.10;99.90;;;;;;4975409;28;20055;-86
2022/07/07 11:15:24;;;;;;;7.40;1.67;;;18.50;99.90;;;;;;5005952;28;20050;-87
2022/07/07 11:17:52;;;;;;;13.45;3.03;;;18.90;99.90;;;;;;5007190;28;20060;-87
2022/07/07 11:20:19;;;;;;;15.15;2.75;;;18.20;99.90;;;;;;4996295;28;20468;-87
2022/07/07 11:22:49;;;;;;;13.35;2.67;;;18.10;99.90;;;;;;4987706;28;20486;-86
2022/07/07 11:25:18;;;;;;;7.78;2.22;;;17.90;99.90;;;;;;4995841;28;20142;-87
2022/07/07 11:27:44;;;;;;;11.93;2.88;;;18.30;99.90;;;;;;4962782;28;20386;-88
2022/07/07 11:30:11;;;;;;;14.70;2.92;;;18.30;99.90;;;;;;4960980;28;20060;-89
2022/07/07 11:32:43;;;;;;;11.10;2.08;;;18.40;99.90;;;;;;4998687;28;20042;-87
2022/07/07 11:35:12;;;;;;;14.32;2.90;;;18.40;99.90;;;;;;4976314;28;20132;-88
2022/07/07 11:37:42;;;;;;;11.13;2.60;;;18.10;99.90;;;;;;4976261;28;20054;-88
2022/07/07 11:40:14;;;;;;;13.88;3.10;;;18.00;99.90;;;;;;4982390;28;20430;-87
2022/07/07 11:42:41;;;;;;;12.98;2.80;;;17.90;99.90;;;;;;5001670;28;20125;-88
2022/07/07 11:45:19;;;;;;;14.25;2.65;;;17.80;99.90;;;;;;4980272;28;20061;-88
2022/07/07 11:47:45;;;;;;;16.70;2.88;;;17.70;99.90;;;;;;4976583;28;20046;-86
2022/07/07 11:50:11;;;;;;;13.07;2.35;;;17.70;99.90;;;;;;4959987;28;20085;-93
2022/07/07 11:52:36;;;;;;;12.23;2.50;;;17.80;99.90;;;;;;4974847;28;20042;-88
2022/07/07 11:55:03;;;;;;;13.60;2.90;;;17.80;99.90;;;;;;4983894;28;20052;-89
2022/07/07 11:57:33;;;;;;;15.75;2.65;;;17.70;99.90;;;;;;4980438;28;20568;-87
2022/07/07 12:00:19;;;;;;;10.80;2.42;;;17.90;99.90;;;;;;4986689;28;20051;-85
2022/07/07 12:02:46;;;;;;;11.45;2.50;;;18.10;99.90;;;;;;4987283;28;20081;-89
2022/07/07 12:05:12;;;;;;;7.55;2.22;;;18.40;99.90;;;;;;4984326;28;20479;-86
2022/07/07 12:07:39;;;;;;;10.43;2.30;;;18.80;99.90;;;;;;4974163;28;20123;-87
2022/07/07 12:10:05;;;;;;;12.82;1.90;;;18.70;99.90;;;;;;4978955;28;20077;-89
2022/07/07 12:12:31;;;;;;;8.57;2.03;;;18.90;99.90;;;;;;4978731;28;20062;-87
2022/07/07 12:14:56;;;;;;;8.48;2.00;;;19.00;99.90;;;;;;4975887;28;20057;-87
2022/07/07 12:17:36;;;;;;;9.45;2.20;;;19.30;99.90;;;;;;4977671;28;20043;-86
2022/07/07 12:20:02;;;;;;;9.02;2.03;;;19.60;99.90;;;;;;4992318;28;20070;-89
2022/07/07 12:22:40;;;;;;;9.93;2.03;;;19.70;99.90;;;;;;4974497;28;20434;-88
2022/07/07 12:25:09;;;;;;;6.20;2.15;;;19.50;99.90;;;;;;4973064;28;20054;-88
2022/07/07 12:27:35;;;;;;;11.32;1.98;;;19.40;99.90;;;;;;4970827;28;20466;-89
2022/07/07 12:30:02;;;;;;;6.00;1.63;;;19.30;99.90;;;;;;4966521;28;20046;-88
2022/07/07 12:32:27;;;;;;;8.68;2.20;;;19.10;99.90;;;;;;4962902;28;20054;-89
2022/07/07 12:34:53;;;;;;;10.82;2.22;;;19.40;99.90;;;;;;4974707;28;20054;-89
2022/07/07 12:37:19;;;;;;;9.98;2.10;;;19.00;99.90;;;;;;4986144;28;20058;-88
2022/07/07 12:39:48;;;;;;;10.50;2.50;;;19.00;99.90;;;;;;4976240;28;20483;-87
2022/07/07 12:42:24;;;;;;;10.27;2.85;;;18.80;99.90;;;;;;4974623;28;20113;-90
2022/07/07 12:44:49;;;;;;;12.52;2.47;;;18.60;99.90;;;;;;4992181;28;20112;-86
2022/07/07 12:47:18;;;;;;;14.02;2.90;;;18.70;99.90;;;;;;4955847;28;20050;-89